Leadville, Colorado
Current Conditions -  °F | °C
As of 9:25 PM on Monday 22 Dec 2014 (Local Time) from KLXV Reporting Station
Light Snow Light Snow  
Wind Chill: -8°   Ceiling: 3000
Heat Index: 11°   Visibility: 1.5mi
Dew Point:   Wind: 21mph
Humidity: 81%   Direction: 350°N
Pressure: 29.78"   Gusts: 29mph
Location:  39.25°N, 106.29°W
Report Text: KLXV 230425Z AUTO 35018G25KT 1 1/2SM -SN OVC030 M12/M14 A2978 RMK AO2 P0000 T11171144
Loading
Personal Weather Stations






























Interactive Weather Map New forecast layout! Learn more

10-Day Weather Forecast

Advertisements
Track Severe Weather on mobile